Taylor, Idaho
Current Conditions -  °F | °C
As of 2:53 PM on Saturday 25 Oct 2014 (Local Time) from KIDA Reporting Station
Sand / Dust Storm Sand / Dust Storm  
Wind Chill: 76°   Ceiling: Unl
Heat Index: 76°   Visibility: 8mi
Dew Point: 30°   Wind: 28mph
Humidity: 19%   Direction: 200°SSW
Pressure: 29.91"   Gusts: 35mph
Location:  43.498°N, 111.73°W
Report Text: KIDA 252053Z 20024G30KT 8SM BLDU FEW100 24/M01 A2991 RMK AO2 PK WND 22031/2034 SLP101 T02441011 58033
Loading
Personal Weather Stations






























Interactive Weather Map
Tropical Storm Tracking
New forecast layout! Learn more

10-Day Weather Forecast

Advertisements
Track Severe Weather on mobile